createdAt,value
2018-09-20T00:00:06.044Z,19.19
2018-09-20T00:02:34.883Z,19.10
2018-09-20T00:05:03.767Z,19.07
2018-09-20T00:07:32.596Z,19.12
2018-09-20T00:10:01.726Z,19.08
2018-09-20T00:12:30.557Z,19.03
2018-09-20T00:14:59.363Z,18.97
2018-09-20T00:17:28.172Z,19.01
2018-09-20T00:19:57.499Z,19.03
2018-09-20T00:22:26.425Z,19.00
2018-09-20T00:24:55.203Z,19.04
2018-09-20T00:27:24.029Z,18.99
2018-09-20T00:29:52.774Z,18.92
2018-09-20T00:32:21.567Z,18.83
2018-09-20T00:34:50.376Z,18.72
2018-09-20T00:37:19.196Z,18.78
2018-09-20T00:39:47.939Z,18.80
2018-09-20T00:42:17.116Z,18.79
2018-09-20T00:44:46.416Z,18.72
2018-09-20T00:47:15.288Z,18.71
2018-09-20T00:49:44.124Z,18.54
2018-09-20T00:52:12.920Z,18.59
2018-09-20T00:54:41.745Z,18.58
2018-09-20T00:57:10.549Z,18.55
2018-09-20T00:59:39.450Z,18.50
2018-09-20T01:02:08.561Z,18.49
2018-09-20T01:04:37.385Z,18.38
2018-09-20T01:07:06.284Z,18.36
2018-09-20T01:09:35.092Z,18.21
2018-09-20T01:12:03.965Z,18.15
2018-09-20T01:14:32.782Z,18.36
2018-09-20T01:17:01.864Z,18.32
2018-09-20T01:19:30.720Z,18.20
2018-09-20T01:21:59.551Z,18.18
2018-09-20T01:24:28.488Z,18.12
2018-09-20T01:26:57.313Z,18.00
2018-09-20T01:29:26.212Z,18.14
2018-09-20T01:31:54.953Z,17.98
2018-09-20T01:34:23.785Z,17.87
2018-09-20T01:36:52.679Z,17.83
2018-09-20T01:39:21.472Z,17.95
2018-09-20T01:41:50.312Z,18.04
2018-09-20T01:44:19.128Z,17.82
2018-09-20T01:46:47.988Z,17.96
2018-09-20T01:49:17.104Z,17.87
2018-09-20T01:51:45.902Z,17.86
2018-09-20T01:54:14.635Z,17.98
2018-09-20T01:56:43.488Z,17.82
2018-09-20T01:59:12.307Z,17.83
2018-09-20T02:01:41.811Z,17.87
2018-09-20T02:04:16.550Z,17.89
2018-09-20T02:06:45.366Z,17.76
2018-09-20T02:09:14.096Z,17.63
2018-09-20T02:11:43.331Z,17.57
2018-09-20T02:14:12.168Z,17.69
2018-09-20T02:16:41.019Z,17.63
2018-09-20T02:19:10.216Z,17.46
2018-09-20T02:21:39.039Z,17.68
2018-09-20T02:24:07.939Z,17.52
2018-09-20T02:26:37.095Z,17.57
2018-09-20T02:29:05.851Z,17.64
2018-09-20T02:31:34.615Z,17.67
2018-09-20T02:34:03.431Z,17.55
2018-09-20T02:36:32.421Z,17.45
2018-09-20T02:39:01.340Z,17.53
2018-09-20T02:41:30.112Z,17.52
2018-09-20T02:43:58.924Z,17.54
2018-09-20T02:46:27.762Z,17.41
2018-09-20T02:48:56.716Z,17.43
2018-09-20T02:51:25.522Z,17.51
2018-09-20T02:53:54.332Z,17.36
2018-09-20T02:56:23.116Z,17.42
2018-09-20T02:58:51.933Z,17.52
2018-09-20T03:01:20.815Z,17.46
2018-09-20T03:03:49.619Z,17.49
2018-09-20T03:06:18.428Z,17.46
2018-09-20T03:08:47.259Z,17.41
2018-09-20T03:11:16.079Z,17.34
2018-09-20T03:13:45.029Z,17.50
2018-09-20T03:16:14.082Z,17.48
2018-09-20T03:18:42.978Z,17.46
2018-09-20T03:21:11.745Z,17.42
2018-09-20T03:23:40.688Z,17.42
2018-09-20T03:26:09.929Z,17.39
2018-09-20T03:28:38.800Z,17.38
2018-09-20T03:31:07.684Z,17.32
2018-09-20T03:33:36.527Z,17.34
2018-09-20T03:36:05.398Z,17.37
2018-09-20T03:38:34.228Z,17.17
2018-09-20T03:41:03.111Z,17.14
2018-09-20T03:43:31.957Z,17.11
2018-09-20T03:46:00.772Z,17.32
2018-09-20T03:48:29.605Z,17.24
2018-09-20T03:50:58.572Z,17.23
2018-09-20T03:53:27.535Z,17.21
2018-09-20T03:55:56.431Z,17.21
2018-09-20T03:58:25.195Z,17.23
2018-09-20T04:00:54.046Z,17.28
2018-09-20T04:03:22.889Z,17.12
2018-09-20T04:05:52.014Z,17.05
2018-09-20T04:08:20.848Z,17.10
2018-09-20T04:10:49.651Z,17.21
2018-09-20T04:13:18.447Z,17.20
2018-09-20T04:15:47.326Z,17.12
2018-09-20T04:18:16.177Z,17.19
2018-09-20T04:20:45.013Z,17.11
2018-09-20T04:23:13.822Z,17.28
2018-09-20T04:25:42.615Z,17.19
2018-09-20T04:28:17.424Z,17.16
2018-09-20T04:30:46.531Z,17.22
2018-09-20T04:33:15.371Z,17.20
2018-09-20T04:35:44.175Z,17.27
2018-09-20T04:38:13.049Z,17.18
2018-09-20T04:40:41.866Z,17.24
2018-09-20T04:43:10.716Z,17.28
2018-09-20T04:45:39.626Z,17.31
2018-09-20T04:48:08.474Z,17.31
2018-09-20T04:50:37.360Z,17.42
2018-09-20T04:53:06.298Z,17.41
2018-09-20T04:55:35.398Z,17.37
2018-09-20T04:58:04.252Z,17.50
2018-09-20T05:00:33.054Z,17.37
2018-09-20T05:03:02.121Z,17.48
2018-09-20T05:05:30.908Z,17.52
2018-09-20T05:07:59.741Z,17.52
2018-09-20T05:10:28.579Z,17.45
2018-09-20T05:12:57.388Z,17.45
2018-09-20T05:15:26.242Z,17.43
2018-09-20T05:17:55.096Z,17.49
2018-09-20T05:20:23.956Z,17.58
2018-09-20T05:22:52.843Z,17.65
2018-09-20T05:25:21.687Z,17.64
2018-09-20T05:27:50.580Z,17.59
2018-09-20T05:30:19.439Z,17.72
2018-09-20T05:32:48.218Z,17.64
2018-09-20T05:35:17.049Z,17.64
2018-09-20T05:37:45.814Z,17.72
2018-09-20T05:40:14.720Z,17.82
2018-09-20T05:42:43.581Z,17.77
2018-09-20T05:45:12.427Z,17.77
2018-09-20T05:47:41.245Z,17.83
2018-09-20T05:50:10.112Z,17.83
2018-09-20T05:52:39.007Z,17.77
2018-09-20T05:55:07.896Z,17.83
2018-09-20T05:57:36.704Z,17.86
2018-09-20T06:00:06.456Z,17.86
2018-09-20T06:02:35.434Z,18.09
2018-09-20T06:05:04.728Z,18.05
2018-09-20T06:07:33.519Z,18.21
2018-09-20T06:10:02.416Z,18.36
2018-09-20T06:12:31.220Z,18.50
2018-09-20T06:15:00.056Z,18.61
2018-09-20T06:17:29.302Z,18.60
2018-09-20T06:19:58.187Z,18.58
2018-09-20T06:22:26.984Z,18.48
2018-09-20T06:24:55.792Z,18.53
2018-09-20T06:27:24.804Z,18.71
2018-09-20T06:29:53.901Z,18.69
2018-09-20T06:32:22.812Z,18.73
2018-09-20T06:34:51.621Z,18.82
2018-09-20T06:37:20.440Z,18.93
2018-09-20T06:39:49.254Z,18.92
2018-09-20T06:42:18.147Z,19.11
2018-09-20T06:44:46.940Z,19.13
2018-09-20T06:47:15.759Z,19.25
2018-09-20T06:49:44.527Z,19.25
2018-09-20T06:52:13.356Z,19.32
2018-09-20T06:54:42.201Z,19.41
2018-09-20T06:57:11.009Z,19.60
2018-09-20T06:59:40.100Z,19.54
2018-09-20T07:02:08.914Z,19.67
2018-09-20T07:04:37.681Z,19.80
2018-09-20T07:07:06.632Z,19.84
2018-09-20T07:09:35.400Z,19.90
2018-09-20T07:12:04.300Z,19.83
2018-09-20T07:14:33.104Z,19.90
2018-09-20T07:17:02.460Z,20.07
2018-09-20T07:19:31.580Z,20.15
2018-09-20T07:22:00.376Z,20.29
2018-09-20T07:24:29.227Z,20.41
2018-09-20T07:26:58.011Z,20.55
2018-09-20T07:29:26.956Z,20.46
2018-09-20T07:31:55.850Z,20.54
2018-09-20T07:34:24.700Z,20.64
2018-09-20T07:36:53.521Z,20.78
2018-09-20T07:39:22.378Z,20.81
2018-09-20T07:41:51.227Z,20.91
2018-09-20T07:44:20.112Z,21.12
2018-09-20T07:46:48.923Z,21.14
2018-09-20T07:49:17.734Z,21.23
2018-09-20T07:51:46.507Z,21.34
2018-09-20T07:54:15.401Z,21.43
2018-09-20T07:56:44.274Z,21.60
2018-09-20T07:59:13.087Z,21.84
2018-09-20T08:01:41.984Z,22.05
2018-09-20T08:04:10.788Z,21.90
2018-09-20T08:06:39.656Z,21.76
2018-09-20T08:09:11.118Z,22.02
2018-09-20T08:11:39.879Z,21.77
2018-09-20T08:14:08.814Z,21.81
2018-09-20T08:16:37.592Z,22.16
2018-09-20T08:19:06.591Z,21.97
2018-09-20T08:21:35.494Z,21.97
2018-09-20T08:24:04.420Z,21.91
2018-09-20T08:26:33.303Z,22.02
2018-09-20T08:29:02.078Z,21.98
2018-09-20T08:31:30.900Z,22.03
2018-09-20T08:33:59.784Z,22.02
2018-09-20T08:36:28.634Z,22.25
2018-09-20T08:38:57.422Z,22.44
2018-09-20T08:41:26.240Z,22.40
2018-09-20T08:43:55.028Z,22.44
2018-09-20T08:46:24.020Z,22.23
2018-09-20T08:48:52.801Z,22.46
2018-09-20T08:51:21.632Z,22.20
2018-09-20T08:53:50.471Z,22.36
2018-09-20T08:56:19.304Z,22.37
2018-09-20T08:58:48.228Z,22.56
2018-09-20T09:01:17.155Z,22.50
2018-09-20T09:03:45.995Z,22.41
2018-09-20T09:06:14.834Z,22.55
2018-09-20T09:08:43.671Z,22.74
2018-09-20T09:11:12.559Z,22.90
2018-09-20T09:13:41.359Z,22.81
2018-09-20T09:16:10.220Z,22.77
2018-09-20T09:18:39.040Z,22.65
2018-09-20T09:21:07.947Z,22.90
2018-09-20T09:23:36.968Z,22.82
2018-09-20T09:26:05.863Z,22.83
2018-09-20T09:28:34.904Z,22.99
2018-09-20T09:31:03.708Z,23.02
2018-09-20T09:33:32.547Z,23.36
2018-09-20T09:36:01.413Z,23.44
2018-09-20T09:38:30.276Z,23.35
2018-09-20T09:40:59.082Z,23.46
2018-09-20T09:43:27.905Z,23.75
2018-09-20T09:45:56.865Z,23.64
2018-09-20T09:48:26.110Z,23.37
2018-09-20T09:50:54.891Z,23.75
2018-09-20T09:53:23.861Z,23.51
2018-09-20T09:55:52.629Z,23.81
2018-09-20T09:58:21.448Z,23.39
2018-09-20T10:00:50.456Z,23.74
2018-09-20T10:03:19.324Z,23.65
2018-09-20T10:05:48.111Z,23.60
2018-09-20T10:08:16.912Z,24.13
2018-09-20T10:10:45.725Z,24.11
2018-09-20T10:13:14.600Z,24.28
2018-09-20T10:15:43.452Z,24.01
2018-09-20T10:18:12.264Z,23.80
2018-09-20T10:20:41.118Z,23.83
2018-09-20T10:23:09.931Z,24.14
2018-09-20T10:25:38.831Z,23.90
2018-09-20T10:28:07.651Z,24.18
2018-09-20T10:30:36.480Z,24.35
2018-09-20T10:33:05.389Z,24.26
2018-09-20T10:35:34.276Z,24.08
2018-09-20T10:38:03.240Z,24.14
2018-09-20T10:40:32.092Z,24.21
2018-09-20T10:43:00.897Z,24.37
2018-09-20T10:45:29.987Z,24.43
2018-09-20T10:47:58.799Z,24.45
2018-09-20T10:50:27.701Z,24.54
2018-09-20T10:52:56.592Z,24.78
2018-09-20T10:55:25.431Z,24.82
2018-09-20T10:57:54.237Z,24.75
2018-09-20T11:00:23.367Z,24.95
2018-09-20T11:02:52.268Z,24.91
2018-09-20T11:05:21.017Z,25.08
2018-09-20T11:07:49.844Z,25.00
2018-09-20T11:10:18.655Z,24.88
2018-09-20T11:12:47.456Z,24.69
2018-09-20T11:15:16.305Z,24.78
2018-09-20T11:17:45.154Z,24.78
2018-09-20T11:20:13.940Z,24.71
2018-09-20T11:22:43.136Z,24.98
2018-09-20T11:25:11.983Z,24.58
2018-09-20T11:27:40.875Z,24.46
2018-09-20T11:30:09.728Z,24.48
2018-09-20T11:32:38.558Z,24.70
2018-09-20T11:35:07.969Z,24.73
2018-09-20T11:37:36.791Z,24.96
2018-09-20T11:40:05.819Z,25.02
2018-09-20T11:42:34.622Z,24.94
2018-09-20T11:45:09.240Z,24.94
2018-09-20T11:47:38.088Z,24.96
2018-09-20T11:50:07.457Z,24.97
2018-09-20T11:52:36.258Z,25.18
2018-09-20T11:55:05.158Z,25.24
2018-09-20T11:57:34.011Z,25.20
2018-09-20T12:00:02.816Z,25.13
2018-09-20T12:02:31.922Z,25.09
2018-09-20T12:05:00.695Z,25.06
2018-09-20T12:07:29.491Z,24.82
2018-09-20T12:09:58.304Z,25.11
2018-09-20T12:12:27.063Z,25.17
2018-09-20T12:14:55.958Z,25.16
2018-09-20T12:17:24.715Z,25.29
2018-09-20T12:19:53.645Z,25.37
2018-09-20T12:22:22.444Z,25.24
2018-09-20T12:24:51.327Z,24.93
2018-09-20T12:27:20.199Z,25.03
2018-09-20T12:29:49.008Z,25.01
2018-09-20T12:32:18.272Z,24.79
2018-09-20T12:34:47.028Z,24.78
2018-09-20T12:37:15.796Z,25.10
2018-09-20T12:39:44.976Z,25.31
2018-09-20T12:42:13.805Z,25.13
2018-09-20T12:44:42.640Z,25.10
2018-09-20T12:47:11.445Z,25.51
2018-09-20T12:49:40.286Z,25.31
2018-09-20T12:52:09.504Z,25.22
2018-09-20T12:54:38.312Z,25.12
2018-09-20T12:57:07.115Z,25.34
2018-09-20T12:59:35.974Z,25.16
2018-09-20T13:02:04.883Z,25.40
2018-09-20T13:04:33.764Z,25.59
2018-09-20T13:07:02.610Z,25.60
2018-09-20T13:09:31.446Z,25.70
2018-09-20T13:12:00.256Z,25.74
2018-09-20T13:14:29.072Z,25.68
2018-09-20T13:16:57.999Z,25.84
2018-09-20T13:19:26.757Z,25.89
2018-09-20T13:21:55.615Z,26.05
2018-09-20T13:24:24.464Z,25.91
2018-09-20T13:26:53.274Z,25.93
2018-09-20T13:29:22.285Z,25.90
2018-09-20T13:31:51.483Z,25.96
2018-09-20T13:34:20.277Z,25.86
2018-09-20T13:36:49.177Z,26.00
2018-09-20T13:39:18.033Z,25.85
2018-09-20T13:41:47.176Z,25.98
2018-09-20T13:44:15.976Z,25.59
2018-09-20T13:46:44.828Z,25.65
2018-09-20T13:49:13.615Z,25.63
2018-09-20T13:51:42.424Z,25.98
2018-09-20T13:54:11.262Z,25.85
2018-09-20T13:56:40.070Z,25.83
2018-09-20T13:59:08.852Z,25.77
2018-09-20T14:01:37.676Z,25.83
2018-09-20T14:04:06.456Z,26.01
2018-09-20T14:06:35.294Z,25.87
2018-09-20T14:09:07.628Z,25.80
2018-09-20T14:11:36.676Z,25.84
2018-09-20T14:14:05.514Z,25.74
2018-09-20T14:16:34.639Z,25.87
2018-09-20T14:19:03.844Z,26.05
2018-09-20T14:21:32.627Z,26.20
2018-09-20T14:24:01.511Z,26.08
2018-09-20T14:26:30.324Z,26.18
2018-09-20T14:28:59.159Z,25.80
2018-09-20T14:31:28.051Z,25.48
2018-09-20T14:33:56.884Z,25.31
2018-09-20T14:36:25.930Z,25.73
2018-09-20T14:38:54.803Z,25.89
2018-09-20T14:41:23.623Z,26.08
2018-09-20T14:43:52.513Z,25.95
2018-09-20T14:46:21.288Z,26.02
2018-09-20T14:48:50.134Z,26.05
2018-09-20T14:51:18.900Z,25.87
2018-09-20T14:53:47.719Z,26.07
2018-09-20T14:56:16.731Z,26.11
2018-09-20T14:58:45.584Z,26.07
2018-09-20T15:01:14.388Z,25.89
2018-09-20T15:03:43.188Z,25.87
2018-09-20T15:06:12.244Z,25.75
2018-09-20T15:08:41.070Z,25.85
2018-09-20T15:11:09.936Z,25.83
2018-09-20T15:13:38.780Z,25.76
2018-09-20T15:16:07.624Z,25.71
2018-09-20T15:18:36.473Z,25.56
2018-09-20T15:21:05.425Z,25.29
2018-09-20T15:23:34.351Z,25.40
2018-09-20T15:26:03.310Z,25.31
2018-09-20T15:28:32.356Z,25.31
2018-09-20T15:31:01.263Z,25.36
2018-09-20T15:33:30.157Z,25.10
2018-09-20T15:35:59.008Z,25.17
2018-09-20T15:38:28.112Z,25.15
2018-09-20T15:40:57.081Z,24.99
2018-09-20T15:43:25.908Z,24.95
2018-09-20T15:46:00.835Z,24.89
2018-09-20T15:48:29.760Z,24.93
2018-09-20T15:50:58.653Z,24.95
2018-09-20T15:53:27.540Z,24.87
2018-09-20T15:55:56.718Z,24.79
2018-09-20T15:58:25.555Z,24.84
2018-09-20T16:00:54.391Z,24.90
2018-09-20T16:03:23.159Z,24.93
2018-09-20T16:05:52.001Z,24.86
2018-09-20T16:08:20.872Z,24.69
2018-09-20T16:10:49.713Z,24.66
2018-09-20T16:13:18.547Z,24.69
2018-09-20T16:15:47.362Z,24.63
2018-09-20T16:18:16.310Z,24.44
2018-09-20T16:20:45.174Z,24.53
2018-09-20T16:23:14.007Z,24.53
2018-09-20T16:25:42.872Z,24.35
2018-09-20T16:28:48.152Z,24.34
2018-09-20T16:31:39.167Z,24.21
2018-09-20T16:36:26.062Z,24.13
2018-09-20T16:39:06.871Z,23.93
2018-09-20T16:41:42.105Z,23.82
2018-09-20T16:44:10.924Z,23.55
2018-09-20T16:46:39.699Z,23.47
2018-09-20T16:49:08.536Z,23.61
2018-09-20T16:51:37.905Z,23.38
2018-09-20T16:54:07.200Z,23.39
2018-09-20T16:56:35.987Z,23.28
2018-09-20T16:59:05.004Z,23.26
2018-09-20T17:01:33.798Z,23.29
2018-09-20T17:04:02.728Z,23.21
2018-09-20T17:06:31.512Z,22.99
2018-09-20T17:09:00.317Z,23.07
2018-09-20T17:11:29.925Z,22.84
2018-09-20T17:13:58.771Z,22.67
2018-09-20T17:16:28.120Z,22.62
2018-09-20T17:18:56.866Z,22.56
2018-09-20T17:21:25.698Z,22.55
2018-09-20T17:23:54.595Z,22.52
2018-09-20T17:26:24.336Z,22.36
2018-09-20T17:28:53.288Z,22.25
2018-09-20T17:31:22.184Z,22.24
2018-09-20T17:33:50.948Z,22.10
2018-09-20T17:36:20.715Z,22.08
2018-09-20T17:38:50.752Z,21.99
2018-09-20T17:41:23.951Z,21.90
2018-09-20T17:43:56.728Z,21.88
2018-09-20T17:46:25.531Z,21.75
2018-09-20T17:48:54.340Z,21.71
2018-09-20T17:51:23.685Z,21.70
2018-09-20T17:53:53.080Z,21.57
2018-09-20T17:56:22.487Z,21.50
2018-09-20T17:58:52.468Z,21.43
2018-09-20T18:01:21.355Z,21.36
2018-09-20T18:03:50.260Z,21.21
2018-09-20T18:06:50.803Z,21.22
2018-09-20T18:09:19.578Z,21.14
2018-09-20T18:11:48.392Z,21.03
2018-09-20T18:14:17.236Z,20.98
2018-09-20T18:16:46.083Z,20.98
2018-09-20T18:19:14.853Z,20.96
2018-09-20T18:21:43.827Z,20.91
2018-09-20T18:24:12.659Z,20.87
2018-09-20T18:26:41.588Z,20.86
2018-09-20T18:29:10.441Z,20.76
2018-09-20T18:31:39.525Z,20.73
2018-09-20T18:34:08.460Z,20.67
2018-09-20T18:36:37.185Z,20.63
2018-09-20T18:39:10.411Z,20.61
2018-09-20T18:41:39.633Z,20.53
2018-09-20T18:44:09.065Z,20.52
2018-09-20T18:46:38.030Z,20.46
2018-09-20T18:49:07.456Z,20.42
2018-09-20T18:51:36.469Z,20.40
2018-09-20T18:54:05.477Z,20.33
2018-09-20T18:56:34.601Z,20.20
2018-09-20T18:59:03.429Z,20.17
2018-09-20T19:01:32.280Z,20.07
2018-09-20T19:04:01.146Z,20.09
2018-09-20T19:06:29.952Z,20.13
2018-09-20T19:08:58.764Z,20.06
2018-09-20T19:11:27.539Z,20.05
2018-09-20T19:13:56.512Z,20.01
2018-09-20T19:16:25.348Z,19.92
2018-09-20T19:18:54.124Z,19.82
2018-09-20T19:21:23.005Z,19.80
2018-09-20T19:23:51.858Z,19.66
2018-09-20T19:26:21.156Z,19.65
2018-09-20T19:28:49.911Z,19.68
2018-09-20T19:31:18.712Z,19.69
2018-09-20T19:33:47.516Z,19.65
2018-09-20T19:36:16.384Z,19.61
2018-09-20T19:38:45.294Z,19.65
2018-09-20T19:41:14.112Z,19.61
2018-09-20T19:43:42.915Z,19.58
2018-09-20T19:46:11.728Z,19.52
2018-09-20T19:48:40.519Z,19.39
2018-09-20T19:51:09.395Z,19.40
2018-09-20T19:53:38.171Z,19.37
2018-09-20T19:56:07.288Z,19.41
2018-09-20T19:58:36.075Z,19.33
2018-09-20T20:01:05.104Z,19.27
2018-09-20T20:03:34.047Z,19.26
2018-09-20T20:06:02.869Z,19.27
2018-09-20T20:08:31.671Z,19.07
2018-09-20T20:11:00.584Z,19.06
2018-09-20T20:13:29.699Z,19.11
2018-09-20T20:15:58.540Z,19.04
2018-09-20T20:18:27.376Z,19.05
2018-09-20T20:20:56.189Z,19.00
2018-09-20T20:23:25.036Z,19.04
2018-09-20T20:25:53.916Z,19.05
2018-09-20T20:28:22.795Z,19.06
2018-09-20T20:30:51.616Z,18.99
2018-09-20T20:33:20.428Z,18.95
2018-09-20T20:35:49.219Z,18.89
2018-09-20T20:38:18.148Z,18.95
2018-09-20T20:40:47.776Z,18.94
2018-09-20T20:43:16.606Z,18.98
2018-09-20T20:45:45.404Z,18.79
2018-09-20T20:48:14.208Z,18.78
2018-09-20T20:50:42.982Z,18.80
2018-09-20T20:53:11.899Z,18.77
2018-09-20T20:55:40.688Z,18.70
2018-09-20T20:58:09.552Z,18.57
2018-09-20T21:00:38.351Z,18.65
2018-09-20T21:03:07.191Z,18.69
2018-09-20T21:05:36.038Z,18.66
2018-09-20T21:08:04.853Z,18.62
2018-09-20T21:10:33.710Z,18.64
2018-09-20T21:13:02.459Z,18.65
2018-09-20T21:15:31.272Z,18.63
2018-09-20T21:18:00.107Z,18.63
2018-09-20T21:20:28.985Z,18.55
2018-09-20T21:22:57.772Z,18.51
2018-09-20T21:25:26.669Z,18.58
2018-09-20T21:27:55.457Z,18.50
2018-09-20T21:30:24.397Z,18.49
2018-09-20T21:32:53.160Z,18.35
2018-09-20T21:35:21.972Z,18.33
2018-09-20T21:37:50.999Z,18.31
2018-09-20T21:40:19.811Z,18.33
2018-09-20T21:42:48.659Z,18.31
2018-09-20T21:45:17.492Z,18.30
2018-09-20T21:47:46.249Z,18.31
2018-09-20T21:50:15.110Z,18.32
2018-09-20T21:52:44.205Z,18.32
2018-09-20T21:55:13.365Z,18.35
2018-09-20T21:57:42.120Z,18.30
2018-09-20T22:00:11.088Z,18.23
2018-09-20T22:02:45.395Z,18.21
2018-09-20T22:05:14.339Z,18.15
2018-09-20T22:07:43.127Z,18.19
2018-09-20T22:10:11.936Z,18.29
2018-09-20T22:12:40.797Z,18.18
2018-09-20T22:15:16.015Z,18.14
2018-09-20T22:17:45.098Z,17.89
2018-09-20T22:20:14.023Z,17.88
2018-09-20T22:22:42.872Z,17.94
2018-09-20T22:25:11.732Z,17.86
2018-09-20T22:27:41.123Z,17.82
2018-09-20T22:30:09.976Z,17.91
2018-09-20T22:32:38.884Z,17.84
2018-09-20T22:35:07.739Z,17.84
2018-09-20T22:37:36.571Z,17.90
2018-09-20T22:40:05.527Z,17.90
2018-09-20T22:42:34.488Z,17.75
2018-09-20T22:45:04.153Z,17.73
2018-09-20T22:47:34.022Z,17.69
2018-09-20T22:50:03.178Z,17.64
2018-09-20T22:52:32.013Z,17.51
2018-09-20T22:55:00.958Z,17.43
2018-09-20T22:57:29.791Z,17.35
2018-09-20T22:59:58.574Z,17.37
2018-09-20T23:02:27.342Z,17.38
2018-09-20T23:04:56.249Z,17.36
2018-09-20T23:07:25.371Z,17.46
2018-09-20T23:09:54.239Z,17.42
2018-09-20T23:12:23.026Z,17.43
2018-09-20T23:14:51.872Z,17.33
2018-09-20T23:17:20.680Z,17.24
2018-09-20T23:19:49.552Z,17.34
2018-09-20T23:22:18.336Z,17.31
2018-09-20T23:24:47.140Z,17.44
2018-09-20T23:27:15.987Z,17.36
2018-09-20T23:29:44.840Z,17.26
2018-09-20T23:32:13.716Z,17.22
2018-09-20T23:34:42.520Z,17.22
2018-09-20T23:37:11.361Z,17.15
2018-09-20T23:39:40.498Z,17.11
2018-09-20T23:42:09.259Z,17.06
2018-09-20T23:44:38.115Z,17.06
2018-09-20T23:47:06.995Z,17.02
2018-09-20T23:49:35.807Z,17.18
2018-09-20T23:52:04.776Z,17.16
2018-09-20T23:54:33.632Z,16.99
2018-09-20T23:57:02.501Z,16.84
2018-09-20T23:59:31.281Z,16.87
